Time;durP1;ratioP1;P1;durP2;ratioP2;P2;SDS_P1;SDS_P2;PMS_P1;PMS_P2;Temp;Humidity;BMP_temperature;BMP_pressure;BME280_temperature;BME280_humidity;BME280_pressure;Samples;Min_cycle;Max_cycle;Signal;HPM_P1;HPM_P2
2022/09/11 00:00:50;;;;;;;0.65;0.50;;;13.70;99.90;;;;;;5050454;28;20033;-83
2022/09/11 00:03:18;;;;;;;0.38;0.32;;;13.70;99.90;;;;;;5050169;28;20095;-83
2022/09/11 00:05:45;;;;;;;0.80;0.57;;;13.70;99.90;;;;;;5050557;28;20037;-83
2022/09/11 00:08:15;;;;;;;0.35;0.32;;;13.70;99.90;;;;;;5049748;28;20053;-83
2022/09/11 00:10:43;;;;;;;0.85;0.65;;;13.70;99.90;;;;;;5050203;28;20132;-82
2022/09/11 00:13:13;;;;;;;0.98;0.77;;;13.70;99.90;;;;;;5049965;28;20116;-83
2022/09/11 00:15:44;;;;;;;0.77;0.60;;;13.70;99.90;;;;;;5066367;28;20038;-83
2022/09/11 00:18:13;;;;;;;1.05;0.80;;;13.70;99.90;;;;;;5083138;28;20049;-83
2022/09/11 00:20:50;;;;;;;0.70;0.68;;;13.70;99.90;;;;;;5066278;28;20045;-83
2022/09/11 00:23:19;;;;;;;0.20;0.20;;;13.70;99.90;;;;;;5066126;28;20048;-82
2022/09/11 00:25:47;;;;;;;1.05;0.55;;;13.70;99.90;;;;;;5066069;28;20443;-83
2022/09/11 00:28:16;;;;;;;0.68;0.50;;;13.80;99.90;;;;;;5082716;28;20045;-83
2022/09/11 00:30:43;;;;;;;1.42;0.68;;;13.80;99.90;;;;;;5083122;28;20052;-83
2022/09/11 00:33:11;;;;;;;0.93;0.45;;;13.80;99.90;;;;;;5066416;28;20080;-83
2022/09/11 00:35:39;;;;;;;0.85;0.65;;;13.80;99.90;;;;;;5033050;28;20041;-83
2022/09/11 00:38:07;;;;;;;0.63;0.35;;;13.80;99.90;;;;;;5082664;28;20042;-83
2022/09/11 00:40:48;;;;;;;0.35;0.25;;;13.80;99.90;;;;;;5049267;28;20103;-83
2022/09/11 00:43:15;;;;;;;0.85;0.63;;;13.80;99.90;;;;;;5049478;28;20044;-83
2022/09/11 00:45:46;;;;;;;0.52;0.50;;;13.90;99.90;;;;;;5049621;28;20052;-83
2022/09/11 00:48:19;;;;;;;0.68;0.52;;;13.80;99.90;;;;;;5049429;28;20038;-83
2022/09/11 00:50:47;;;;;;;1.38;0.70;;;13.80;99.90;;;;;;5049559;28;20044;-83
2022/09/11 00:53:17;;;;;;;0.32;0.20;;;13.80;99.90;;;;;;5033449;28;20046;-83
2022/09/11 00:55:49;;;;;;;0.77;0.50;;;13.80;99.90;;;;;;5049516;28;20041;-83
2022/09/11 00:58:22;;;;;;;0.43;0.40;;;13.80;99.90;;;;;;5049526;28;20041;-83
2022/09/11 01:00:52;;;;;;;0.80;0.63;;;13.80;99.90;;;;;;5082643;28;20042;-83
2022/09/11 01:03:20;;;;;;;0.45;0.35;;;13.80;99.90;;;;;;5048757;28;20570;-82
2022/09/11 01:05:47;;;;;;;0.65;0.50;;;13.80;99.90;;;;;;5049199;28;20038;-83
2022/09/11 01:08:14;;;;;;;0.35;0.30;;;13.80;99.90;;;;;;5049205;28;20915;-83
2022/09/11 01:11:03;;;;;;;0.40;0.40;;;13.90;99.90;;;;;;5048897;28;20111;-83
2022/09/11 01:13:52;;;;;;;0.93;0.70;;;14.00;99.90;;;;;;5048870;28;20125;-83
2022/09/11 01:16:41;;;;;;;0.40;0.32;;;14.00;99.90;;;;;;5048815;28;20044;-82
2022/09/11 01:19:36;;;;;;;0.35;0.32;;;14.10;99.90;;;;;;5049264;28;20120;-83
2022/09/11 01:22:05;;;;;;;0.75;0.50;;;14.10;99.90;;;;;;5065407;28;20567;-83
2022/09/11 01:25:07;;;;;;;0.93;0.43;;;14.00;99.90;;;;;;5049013;28;20042;-83
2022/09/11 01:27:52;;;;;;;0.38;0.32;;;14.00;99.90;;;;;;5048767;28;20041;-83
2022/09/11 01:30:21;;;;;;;0.52;0.40;;;14.00;99.90;;;;;;5049181;28;20068;-83
2022/09/11 01:33:11;;;;;;;1.05;0.70;;;13.90;99.90;;;;;;5048994;28;20045;-83
2022/09/11 01:36:02;;;;;;;0.68;0.43;;;13.90;99.90;;;;;;5048928;28;20046;-83
2022/09/11 01:38:41;;;;;;;1.45;0.73;;;13.90;99.90;;;;;;5036961;28;20136;-83
2022/09/11 01:41:15;;;;;;;1.98;0.50;;;13.90;99.90;;;;;;5048637;28;20037;-83
2022/09/11 01:43:55;;;;;;;0.63;0.45;;;13.80;99.90;;;;;;5048614;28;20037;-83
2022/09/11 01:46:26;;;;;;;0.90;0.60;;;13.80;99.90;;;;;;5062578;28;20120;-83
2022/09/11 01:49:16;;;;;;;1.20;0.57;;;13.80;99.90;;;;;;5055338;28;20074;-83
2022/09/11 01:51:44;;;;;;;0.82;0.50;;;13.80;99.90;;;;;;5029737;28;20489;-83
2022/09/11 01:54:16;;;;;;;0.82;0.45;;;13.70;99.90;;;;;;5049380;28;20406;-83
2022/09/11 01:56:56;;;;;;;0.98;0.70;;;13.70;99.90;;;;;;5048822;28;20104;-83
2022/09/11 01:59:30;;;;;;;0.93;0.60;;;13.70;99.90;;;;;;5049305;28;20137;-83
2022/09/11 02:02:03;;;;;;;0.38;0.28;;;13.70;99.90;;;;;;5048990;28;20052;-83
2022/09/11 02:04:36;;;;;;;0.80;0.60;;;13.70;99.90;;;;;;5049042;28;20041;-83
2022/09/11 02:07:32;;;;;;;1.27;0.63;;;13.60;99.90;;;;;;5065607;28;20049;-83
2022/09/11 02:10:07;;;;;;;0.60;0.40;;;13.60;99.90;;;;;;5049386;28;20046;-83
2022/09/11 02:12:42;;;;;;;0.85;0.50;;;13.60;99.90;;;;;;5055130;28;20500;-83
2022/09/11 02:15:14;;;;;;;0.95;0.82;;;13.60;99.90;;;;;;5052314;28;20528;-83
2022/09/11 02:17:58;;;;;;;0.85;0.60;;;13.50;99.90;;;;;;5052271;28;20048;-83
2022/09/11 02:20:25;;;;;;;0.40;0.40;;;13.50;99.90;;;;;;5052554;28;20046;-83
2022/09/11 02:22:52;;;;;;;0.60;0.50;;;13.50;99.90;;;;;;5035473;28;20494;-83
2022/09/11 02:25:18;;;;;;;1.10;0.52;;;13.50;99.90;;;;;;5052040;28;20056;-83
2022/09/11 02:27:46;;;;;;;1.00;0.60;;;13.40;99.90;;;;;;5051835;28;20034;-83
2022/09/11 02:30:13;;;;;;;0.55;0.40;;;13.40;99.90;;;;;;5052029;28;20037;-83
2022/09/11 02:32:42;;;;;;;1.58;0.80;;;13.30;99.90;;;;;;5051498;28;20529;-83
2022/09/11 02:35:10;;;;;;;0.73;0.40;;;13.40;99.90;;;;;;5052146;28;20045;-83
2022/09/11 02:37:48;;;;;;;0.63;0.50;;;13.30;99.90;;;;;;5051553;28;20485;-83
2022/09/11 02:40:25;;;;;;;1.05;0.75;;;13.40;99.90;;;;;;5068261;28;20080;-83
2022/09/11 02:42:55;;;;;;;0.85;0.40;;;13.30;99.90;;;;;;5051359;28;20060;-83
2022/09/11 02:45:22;;;;;;;0.25;0.25;;;13.40;99.90;;;;;;5068076;28;20041;-83
2022/09/11 02:48:20;;;;;;;0.45;0.40;;;13.40;99.90;;;;;;5067710;28;20037;-83
2022/09/11 02:51:25;;;;;;;1.10;0.77;;;13.30;99.90;;;;;;5051588;28;20041;-83
2022/09/11 02:54:17;;;;;;;0.50;0.30;;;13.30;99.90;;;;;;5051179;28;20129;-83
2022/09/11 02:56:49;;;;;;;0.85;0.43;;;13.30;99.90;;;;;;5067783;28;20152;-83
2022/09/11 02:59:25;;;;;;;0.45;0.40;;;13.30;99.90;;;;;;5051436;28;20402;-83
2022/09/11 03:01:54;;;;;;;0.50;0.50;;;13.20;99.90;;;;;;5067645;28;20046;-83
2022/09/11 03:04:23;;;;;;;0.90;0.60;;;13.20;99.90;;;;;;5050123;28;20033;-83
2022/09/11 03:06:51;;;;;;;1.67;0.70;;;13.20;99.90;;;;;;5051143;28;20504;-83
2022/09/11 03:09:18;;;;;;;0.95;0.47;;;13.20;99.90;;;;;;5051023;28;20054;-83
2022/09/11 03:11:46;;;;;;;0.40;0.30;;;13.20;99.90;;;;;;5051367;28;20041;-83
2022/09/11 03:14:13;;;;;;;1.25;0.60;;;13.10;99.90;;;;;;5051441;28;20039;-83
2022/09/11 03:16:40;;;;;;;0.80;0.50;;;13.10;99.90;;;;;;5034651;28;20060;-83
2022/09/11 03:19:07;;;;;;;0.75;0.50;;;13.10;99.90;;;;;;5051224;28;20498;-83
2022/09/11 03:21:34;;;;;;;0.45;0.20;;;13.10;99.90;;;;;;5034764;28;20056;-83
2022/09/11 03:24:02;;;;;;;0.50;0.40;;;13.10;99.90;;;;;;5050830;28;20036;-83
2022/09/11 03:26:32;;;;;;;0.57;0.47;;;13.00;99.90;;;;;;5051262;28;20124;-83
2022/09/11 03:28:59;;;;;;;0.55;0.30;;;13.00;99.90;;;;;;5050604;28;20065;-83
2022/09/11 03:31:25;;;;;;;0.38;0.25;;;13.00;99.90;;;;;;5034548;28;20460;-83
2022/09/11 03:33:52;;;;;;;0.88;0.38;;;13.00;99.90;;;;;;5034310;28;20048;-83
2022/09/11 03:36:19;;;;;;;0.82;0.40;;;12.90;99.90;;;;;;5034804;28;20073;-83
2022/09/11 03:38:46;;;;;;;0.45;0.45;;;12.90;99.90;;;;;;5050592;28;20049;-83
2022/09/11 03:41:14;;;;;;;1.05;0.50;;;12.90;99.90;;;;;;5067274;28;20107;-83
2022/09/11 03:43:40;;;;;;;1.23;0.75;;;12.90;99.90;;;;;;5066778;28;20044;-83
2022/09/11 03:46:07;;;;;;;0.52;0.20;;;12.90;99.90;;;;;;5034494;28;20395;-83
2022/09/11 03:48:34;;;;;;;0.85;0.40;;;12.80;99.90;;;;;;5034625;28;20199;-83
2022/09/11 03:51:01;;;;;;;0.95;0.57;;;12.80;99.90;;;;;;5034256;28;20041;-83
2022/09/11 03:53:28;;;;;;;0.32;0.30;;;12.80;99.90;;;;;;5050894;28;20045;-83
2022/09/11 03:55:54;;;;;;;1.02;0.70;;;12.70;99.90;;;;;;5034074;28;20072;-83
2022/09/11 03:58:21;;;;;;;0.85;0.68;;;12.80;99.90;;;;;;5050456;28;20048;-83
2022/09/11 04:00:48;;;;;;;0.57;0.52;;;12.70;99.90;;;;;;5033735;28;20073;-82
2022/09/11 04:03:15;;;;;;;0.20;0.17;;;12.70;99.90;;;;;;5034094;28;20052;-83
2022/09/11 04:05:46;;;;;;;0.80;0.40;;;12.70;99.90;;;;;;5034145;28;20045;-82
2022/09/11 04:08:13;;;;;;;0.77;0.50;;;12.70;99.90;;;;;;5034281;28;20049;-83
2022/09/11 04:10:39;;;;;;;0.45;0.30;;;12.70;99.90;;;;;;5033995;28;20065;-83
2022/09/11 04:13:06;;;;;;;0.40;0.30;;;12.70;99.90;;;;;;5032642;28;20142;-83
2022/09/11 04:15:33;;;;;;;0.45;0.32;;;12.70;99.90;;;;;;5066653;28;20128;-83
2022/09/11 04:17:59;;;;;;;0.38;0.25;;;12.80;99.90;;;;;;5017089;28;20068;-83
2022/09/11 04:20:26;;;;;;;0.75;0.35;;;12.70;99.90;;;;;;5035051;28;20494;-83
2022/09/11 04:22:53;;;;;;;1.23;0.77;;;12.70;99.90;;;;;;5013483;28;20053;-83
2022/09/11 04:25:20;;;;;;;0.88;0.32;;;12.70;99.90;;;;;;5030066;28;20133;-83
2022/09/11 04:27:46;;;;;;;1.05;0.38;;;12.70;99.90;;;;;;5029760;28;20041;-83
2022/09/11 04:30:13;;;;;;;1.20;0.55;;;12.60;99.90;;;;;;5013963;28;20457;-83
2022/09/11 04:32:40;;;;;;;0.28;0.25;;;12.60;99.90;;;;;;5030049;28;20103;-83
2022/09/11 04:35:07;;;;;;;0.70;0.50;;;12.60;99.90;;;;;;5029891;28;20056;-83
2022/09/11 04:37:34;;;;;;;0.77;0.47;;;12.60;99.90;;;;;;5029997;28;20041;-83
2022/09/11 04:40:01;;;;;;;1.05;0.57;;;12.60;99.90;;;;;;5029709;28;20045;-83
2022/09/11 04:42:28;;;;;;;0.10;0.10;;;12.60;99.90;;;;;;5029739;28;20064;-83
2022/09/11 04:44:55;;;;;;;0.55;0.40;;;12.60;99.90;;;;;;5029381;28;20073;-83
2022/09/11 04:47:22;;;;;;;0.55;0.40;;;12.60;99.90;;;;;;5013727;28;20052;-83
2022/09/11 04:49:48;;;;;;;0.77;0.50;;;12.60;99.90;;;;;;5013356;28;20490;-83
2022/09/11 04:52:15;;;;;;;1.05;0.55;;;12.60;99.90;;;;;;5043563;28;20044;-83
2022/09/11 04:54:42;;;;;;;0.50;0.47;;;12.50;99.90;;;;;;5033063;28;20516;-83
2022/09/11 04:57:08;;;;;;;0.32;0.30;;;12.50;99.90;;;;;;5049082;28;20159;-83
2022/09/11 04:59:35;;;;;;;0.47;0.40;;;12.50;99.90;;;;;;5049226;28;20045;-83
2022/09/11 05:02:02;;;;;;;0.43;0.35;;;12.50;99.90;;;;;;5048939;28;20041;-83
2022/09/11 05:04:29;;;;;;;0.50;0.30;;;12.50;99.90;;;;;;5049646;28;20038;-83
2022/09/11 05:06:55;;;;;;;0.30;0.20;;;12.50;99.90;;;;;;5022626;28;20061;-83
2022/09/11 05:09:23;;;;;;;0.77;0.57;;;12.50;99.90;;;;;;5031752;28;21640;-83
2022/09/11 05:11:50;;;;;;;0.25;0.22;;;12.50;99.90;;;;;;5049409;28;20049;-83
2022/09/11 05:14:17;;;;;;;0.77;0.40;;;12.50;99.90;;;;;;5049234;28;20087;-83
2022/09/11 05:16:44;;;;;;;0.40;0.40;;;12.50;99.90;;;;;;5033152;28;20057;-83
2022/09/11 05:19:11;;;;;;;0.80;0.28;;;12.40;99.90;;;;;;5016629;28;20409;-83
2022/09/11 05:21:38;;;;;;;0.45;0.32;;;12.40;99.90;;;;;;5016329;28;20041;-83
2022/09/11 05:24:04;;;;;;;0.43;0.40;;;12.40;99.90;;;;;;5032367;28;20068;-83
2022/09/11 05:26:34;;;;;;;0.52;0.20;;;12.50;99.90;;;;;;5032072;28;20104;-83
2022/09/11 05:29:03;;;;;;;0.43;0.40;;;12.50;99.90;;;;;;5035437;28;20041;-82
2022/09/11 05:31:31;;;;;;;0.85;0.50;;;12.60;99.90;;;;;;5029102;28;20053;-83
2022/09/11 05:34:02;;;;;;;0.20;0.20;;;12.70;99.90;;;;;;4996830;28;20042;-83
2022/09/11 05:36:32;;;;;;;0.80;0.47;;;12.70;99.90;;;;;;5013991;28;20037;-83
2022/09/11 05:38:59;;;;;;;0.30;0.30;;;12.80;99.90;;;;;;5013347;28;20045;-83
2022/09/11 05:41:26;;;;;;;0.90;0.30;;;12.80;99.90;;;;;;5045108;28;20470;-83
2022/09/11 05:43:53;;;;;;;0.77;0.60;;;12.90;99.90;;;;;;5028919;28;20116;-83
2022/09/11 05:46:20;;;;;;;0.38;0.25;;;13.00;99.90;;;;;;5028655;28;20566;-83
2022/09/11 05:48:47;;;;;;;0.28;0.20;;;13.10;99.90;;;;;;4997073;28;20037;-83
2022/09/11 05:51:20;;;;;;;0.63;0.50;;;13.20;99.90;;;;;;5028802;28;20050;-83
2022/09/11 05:53:51;;;;;;;0.40;0.25;;;13.20;99.90;;;;;;5021875;28;20049;-83
2022/09/11 05:56:20;;;;;;;0.55;0.30;;;13.30;99.90;;;;;;5048937;28;20085;-83
2022/09/11 05:58:47;;;;;;;0.43;0.40;;;13.40;99.90;;;;;;5048550;28;20041;-83
2022/09/11 06:01:26;;;;;;;0.43;0.40;;;13.50;99.90;;;;;;5048243;28;20056;-83
2022/09/11 06:03:53;;;;;;;0.55;0.38;;;13.50;99.90;;;;;;5048997;28;20033;-83
2022/09/11 06:06:21;;;;;;;0.28;0.17;;;13.60;99.90;;;;;;5048485;28;20033;-83
2022/09/11 06:08:49;;;;;;;0.65;0.30;;;13.70;99.90;;;;;;5064774;28;20107;-83
2022/09/11 06:11:18;;;;;;;0.50;0.38;;;13.70;99.90;;;;;;5032177;28;20045;-83
2022/09/11 06:13:46;;;;;;;0.22;0.20;;;13.80;99.90;;;;;;5029245;28;20060;-83
2022/09/11 06:16:18;;;;;;;0.40;0.20;;;13.80;99.90;;;;;;5028529;28;20037;-82
2022/09/11 06:18:47;;;;;;;0.20;0.17;;;13.90;99.90;;;;;;5028644;28;20516;-83
2022/09/11 06:21:18;;;;;;;0.20;0.20;;;14.00;99.90;;;;;;5039899;28;20056;-82
2022/09/11 06:23:46;;;;;;;0.55;0.22;;;14.00;99.90;;;;;;5049094;28;20049;-83
2022/09/11 06:26:15;;;;;;;0.20;0.20;;;14.10;99.90;;;;;;5042621;28;20073;-83
2022/09/11 06:28:42;;;;;;;0.50;0.45;;;14.10;99.90;;;;;;5028827;28;20034;-83
2022/09/11 06:31:11;;;;;;;0.80;0.57;;;14.20;99.90;;;;;;5044511;28;20037;-83
2022/09/11 06:33:39;;;;;;;0.22;0.20;;;14.20;99.90;;;;;;5044415;28;20044;-83
2022/09/11 06:36:11;;;;;;;0.20;0.20;;;14.20;99.90;;;;;;5031593;28;20045;-83
2022/09/11 06:38:38;;;;;;;0.45;0.35;;;14.30;99.90;;;;;;5067122;28;20044;-83
2022/09/11 06:41:10;;;;;;;0.28;0.25;;;14.40;99.90;;;;;;5035194;28;20042;-83
2022/09/11 06:43:37;;;;;;;0.22;0.22;;;14.40;99.90;;;;;;5051783;28;20045;-83
2022/09/11 06:46:06;;;;;;;0.40;0.38;;;14.50;99.90;;;;;;5051370;28;20128;-83
2022/09/11 06:48:33;;;;;;;0.20;0.20;;;14.50;99.90;;;;;;5052372;28;20057;-83
2022/09/11 06:51:05;;;;;;;0.38;0.28;;;14.60;99.90;;;;;;5039057;28;20096;-83
2022/09/11 06:53:32;;;;;;;0.10;0.10;;;14.60;99.90;;;;;;5029926;28;20041;-83
2022/09/11 06:55:59;;;;;;;0.43;0.22;;;14.60;99.90;;;;;;5043440;28;20091;-83
2022/09/11 06:58:28;;;;;;;0.10;0.10;;;14.70;99.90;;;;;;5040457;28;20041;-83
2022/09/11 07:01:16;;;;;;;0.68;0.40;;;14.70;99.90;;;;;;5004638;28;20714;-83
2022/09/11 07:03:48;;;;;;;0.50;0.30;;;14.80;99.90;;;;;;5081256;28;20037;-84
2022/09/11 07:06:18;;;;;;;0.30;0.28;;;14.90;99.90;;;;;;5080897;28;20044;-83
2022/09/11 07:08:51;;;;;;;0.28;0.28;;;14.90;99.90;;;;;;5051491;28;20066;-83
2022/09/11 07:11:18;;;;;;;0.17;0.17;;;15.00;99.90;;;;;;5015061;28;20759;-83
2022/09/11 07:13:45;;;;;;;0.52;0.35;;;15.00;99.90;;;;;;5047224;28;20409;-83
2022/09/11 07:16:12;;;;;;;0.10;0.10;;;15.00;99.90;;;;;;5051292;28;20049;-83
2022/09/11 07:18:41;;;;;;;0.20;0.20;;;15.00;99.90;;;;;;5051070;28;20052;-84
2022/09/11 07:21:14;;;;;;;0.40;0.30;;;15.10;99.90;;;;;;5050518;28;20047;-84
2022/09/11 07:23:45;;;;;;;0.38;0.22;;;15.10;99.90;;;;;;5067737;28;20091;-84
2022/09/11 07:26:12;;;;;;;0.20;0.20;;;15.20;99.90;;;;;;5051014;28;20493;-84
2022/09/11 07:28:39;;;;;;;0.47;0.40;;;15.20;99.90;;;;;;5050895;28;20048;-85
2022/09/11 07:31:14;;;;;;;0.15;0.15;;;15.30;99.90;;;;;;5054615;28;20038;-84
2022/09/11 07:33:47;;;;;;;0.20;0.20;;;15.30;99.90;;;;;;5077856;28;20406;-84
2022/09/11 07:36:17;;;;;;;0.80;0.40;;;15.40;99.90;;;;;;5031676;28;20057;-83
2022/09/11 07:38:46;;;;;;;0.57;0.40;;;15.50;99.90;;;;;;5031144;28;20089;-84
2022/09/11 07:41:14;;;;;;;0.57;0.52;;;15.50;99.90;;;;;;5023176;28;20076;-84
2022/09/11 07:43:45;;;;;;;0.10;0.10;;;15.60;99.90;;;;;;5050982;28;20069;-84
2022/09/11 07:46:13;;;;;;;0.60;0.40;;;15.70;99.90;;;;;;5034359;28;20401;-84
2022/09/11 07:48:41;;;;;;;0.45;0.25;;;15.80;99.90;;;;;;5033990;28;20041;-84
2022/09/11 07:51:11;;;;;;;0.70;0.40;;;15.90;99.90;;;;;;5067092;28;20042;-84
2022/09/11 07:53:42;;;;;;;0.43;0.38;;;16.00;99.90;;;;;;5049644;28;20124;-85
2022/09/11 07:56:12;;;;;;;0.28;0.28;;;16.10;99.90;;;;;;5080358;28;20077;-84
2022/09/11 07:58:40;;;;;;;0.20;0.20;;;16.10;99.90;;;;;;5050367;28;20099;-84
2022/09/11 08:01:09;;;;;;;0.20;0.20;;;16.20;99.90;;;;;;5049929;28;20049;-84
2022/09/11 08:03:36;;;;;;;0.65;0.40;;;16.20;99.90;;;;;;5066208;28;20397;-85
2022/09/11 08:06:09;;;;;;;0.55;0.50;;;16.20;99.90;;;;;;5049921;28;20063;-82
2022/09/11 08:08:36;;;;;;;0.52;0.40;;;16.30;99.90;;;;;;5082597;28;20053;-82
2022/09/11 08:11:10;;;;;;;0.52;0.50;;;16.30;99.90;;;;;;5034127;28;20053;-83
2022/09/11 08:13:37;;;;;;;0.98;0.50;;;16.40;99.90;;;;;;5066078;28;20051;-83
2022/09/11 08:16:05;;;;;;;0.85;0.63;;;16.50;99.90;;;;;;5050042;28;20061;-83
2022/09/11 08:18:34;;;;;;;0.95;0.47;;;16.60;99.90;;;;;;5049770;28;20072;-83
2022/09/11 08:21:08;;;;;;;0.80;0.30;;;16.60;99.90;;;;;;5048213;28;20132;-83
2022/09/11 08:23:36;;;;;;;0.65;0.50;;;16.70;99.90;;;;;;5049781;28;20396;-83
2022/09/11 08:26:08;;;;;;;0.50;0.38;;;16.80;99.90;;;;;;5050176;28;20079;-83
2022/09/11 08:28:37;;;;;;;0.50;0.50;;;16.90;99.90;;;;;;5082383;28;20436;-83
2022/09/11 08:31:05;;;;;;;0.55;0.40;;;16.90;99.90;;;;;;5066281;28;20042;-83
2022/09/11 08:33:32;;;;;;;0.55;0.30;;;17.10;99.90;;;;;;5049378;28;20462;-83
2022/09/11 08:36:01;;;;;;;0.35;0.30;;;17.20;99.90;;;;;;5066090;28;20082;-83
2022/09/11 08:38:28;;;;;;;1.00;0.65;;;17.30;99.90;;;;;;5082298;28;20124;-83
2022/09/11 08:41:10;;;;;;;1.35;0.45;;;17.40;99.90;;;;;;5082639;28;20573;-83
2022/09/11 08:43:45;;;;;;;0.47;0.30;;;17.50;99.90;;;;;;5081997;28;20382;-82
2022/09/11 08:46:12;;;;;;;0.40;0.40;;;17.60;99.90;;;;;;5065679;28;20045;-83
2022/09/11 08:49:03;;;;;;;1.52;0.82;;;17.80;99.90;;;;;;5032735;28;20129;-83
2022/09/11 08:51:30;;;;;;;1.38;0.77;;;17.90;99.90;;;;;;5049412;28;20041;-83
2022/09/11 08:54:00;;;;;;;1.30;0.77;;;18.10;99.90;;;;;;5049185;28;20064;-83
2022/09/11 08:56:29;;;;;;;0.50;0.50;;;18.20;99.90;;;;;;5049137;28;20049;-83
2022/09/11 08:59:14;;;;;;;0.90;0.68;;;18.40;99.90;;;;;;5049188;28;20041;-83
2022/09/11 09:01:57;;;;;;;1.27;0.85;;;18.50;99.90;;;;;;5048213;28;20041;-83
2022/09/11 09:04:51;;;;;;;0.45;0.35;;;18.60;99.90;;;;;;5082249;28;20030;-83
2022/09/11 09:07:46;;;;;;;0.90;0.70;;;18.80;99.90;;;;;;5065499;28;20586;-83
2022/09/11 09:10:25;;;;;;;1.02;0.60;;;18.90;99.90;;;;;;5065344;28;20045;-83
2022/09/11 09:13:01;;;;;;;0.77;0.50;;;19.00;99.90;;;;;;5065263;28;20041;-83
2022/09/11 09:15:33;;;;;;;0.65;0.50;;;19.10;99.90;;;;;;5065190;28;20041;-84
2022/09/11 09:18:12;;;;;;;0.50;0.50;;;19.20;99.90;;;;;;5065470;28;20494;-83
2022/09/11 09:20:45;;;;;;;0.60;0.60;;;19.30;99.90;;;;;;5081620;28;20038;-83
2022/09/11 09:23:23;;;;;;;0.93;0.70;;;19.40;99.90;;;;;;5068213;28;20050;-83
2022/09/11 09:25:56;;;;;;;1.33;0.80;;;19.40;99.90;;;;;;5081904;28;20042;-83
2022/09/11 09:28:45;;;;;;;0.95;0.75;;;19.40;99.90;;;;;;5049221;28;20088;-83
2022/09/11 09:31:18;;;;;;;0.70;0.60;;;19.60;99.90;;;;;;5048931;28;20057;-83
2022/09/11 09:33:50;;;;;;;0.90;0.50;;;19.60;99.90;;;;;;5081467;28;20111;-83
2022/09/11 09:36:19;;;;;;;0.32;0.30;;;19.50;99.90;;;;;;5048935;28;20045;-83
2022/09/11 09:38:47;;;;;;;1.25;0.77;;;19.40;99.90;;;;;;5048568;28;20131;-83
2022/09/11 09:41:30;;;;;;;0.70;0.52;;;19.30;99.90;;;;;;5049158;28;20597;-83
2022/09/11 09:44:07;;;;;;;0.93;0.57;;;19.30;99.90;;;;;;5065390;28;20048;-83
2022/09/11 09:46:41;;;;;;;0.47;0.45;;;19.30;99.90;;;;;;5048192;28;20041;-83
2022/09/11 09:49:16;;;;;;;0.70;0.32;;;19.30;99.90;;;;;;5048480;28;20037;-83
2022/09/11 09:51:43;;;;;;;0.17;0.17;;;19.30;99.90;;;;;;5048444;28;20095;-83
2022/09/11 09:54:15;;;;;;;0.77;0.47;;;19.30;99.90;;;;;;5032355;28;20076;-83
2022/09/11 09:56:48;;;;;;;0.63;0.40;;;19.20;99.90;;;;;;5049757;28;20041;-83
2022/09/11 09:59:20;;;;;;;0.40;0.30;;;19.30;99.90;;;;;;5081830;28;20045;-84
2022/09/11 10:01:49;;;;;;;0.65;0.40;;;19.40;99.90;;;;;;5054543;28;20041;-83
2022/09/11 10:04:18;;;;;;;0.88;0.47;;;19.70;99.90;;;;;;5049394;28;20428;-83
2022/09/11 10:06:46;;;;;;;0.52;0.40;;;20.00;99.90;;;;;;5048051;28;20095;-83
2022/09/11 10:09:27;;;;;;;0.80;0.55;;;20.10;99.90;;;;;;5064787;28;20211;-83
2022/09/11 10:12:01;;;;;;;0.30;0.30;;;20.40;99.90;;;;;;5048450;28;20072;-83
2022/09/11 10:14:36;;;;;;;0.70;0.50;;;20.60;99.90;;;;;;5052347;28;20545;-83
2022/09/11 10:17:03;;;;;;;;;;;20.80;99.90;;;;;;5052612;28;20551;-83
2022/09/11 10:19:39;;;;;;;0.40;0.40;;;20.80;99.90;;;;;;5068470;28;19925;-83
2022/09/11 10:22:27;;;;;;;0.50;0.45;;;20.80;99.90;;;;;;5052007;28;20053;-84
2022/09/11 10:25:15;;;;;;;0.85;0.40;;;20.60;99.90;;;;;;5085006;28;20054;-83
2022/09/11 10:28:14;;;;;;;0.50;0.40;;;20.40;99.90;;;;;;5084807;28;20041;-83
2022/09/11 10:30:46;;;;;;;0.45;0.45;;;20.30;99.90;;;;;;5051704;28;20129;-83
2022/09/11 10:33:45;;;;;;;0.88;0.50;;;20.10;99.90;;;;;;5052192;28;20037;-83
2022/09/11 10:36:20;;;;;;;0.75;0.60;;;20.00;99.90;;;;;;5051831;28;20041;-83
2022/09/11 10:38:47;;;;;;;0.90;0.67;;;19.90;99.90;;;;;;5051516;28;20072;-84
2022/09/11 10:41:20;;;;;;;0.63;0.50;;;19.80;99.90;;;;;;5031887;28;20050;-83
2022/09/11 10:43:54;;;;;;;0.63;0.45;;;19.70;99.90;;;;;;5048153;28;20045;-83
2022/09/11 10:46:36;;;;;;;0.30;0.22;;;19.60;99.90;;;;;;5048554;28;20128;-83
2022/09/11 10:49:06;;;;;;;0.32;0.28;;;19.60;99.90;;;;;;5048425;28;20106;-83
2022/09/11 10:51:35;;;;;;;0.68;0.40;;;19.50;99.90;;;;;;5063061;28;20046;-83
2022/09/11 10:54:15;;;;;;;0.47;0.40;;;19.50;99.90;;;;;;5067914;28;20112;-83
2022/09/11 10:56:59;;;;;;;0.68;0.40;;;19.50;99.90;;;;;;5067955;28;20045;-84
2022/09/11 10:59:39;;;;;;;0.52;0.40;;;19.40;99.90;;;;;;5068357;28;20053;-83
2022/09/11 11:02:31;;;;;;;0.43;0.30;;;19.40;99.90;;;;;;5084757;28;20156;-83
2022/09/11 11:05:04;;;;;;;0.20;0.20;;;19.40;99.90;;;;;;5060869;28;20052;-83
2022/09/11 11:07:44;;;;;;;0.32;0.28;;;19.30;99.90;;;;;;5067627;28;20419;-83
2022/09/11 11:10:31;;;;;;;0.57;0.30;;;19.20;99.90;;;;;;5067824;28;20707;-83
2022/09/11 11:13:44;;;;;;;0.40;0.30;;;19.20;99.90;;;;;;5067699;28;20056;-83
2022/09/11 11:16:55;;;;;;;0.15;0.15;;;19.20;99.90;;;;;;5067366;28;20124;-83
2022/09/11 11:19:48;;;;;;;0.35;0.35;;;19.20;99.90;;;;;;5010890;28;20046;-83
2022/09/11 11:22:48;;;;;;;0.08;0.08;;;19.30;99.90;;;;;;4994462;28;20593;-83
2022/09/11 11:25:23;;;;;;;0.03;0.03;;;19.40;99.90;;;;;;5062458;28;20053;-83
2022/09/11 11:28:11;;;;;;;0.10;0.10;;;19.70;99.90;;;;;;5067018;28;20056;-83
2022/09/11 11:30:57;;;;;;;0.25;0.25;;;19.90;99.90;;;;;;5050744;28;20050;-83
2022/09/11 11:33:30;;;;;;;0.10;0.10;;;20.10;99.90;;;;;;5051195;28;20037;-83
2022/09/11 11:36:09;;;;;;;0.32;0.22;;;20.10;99.90;;;;;;5050771;28;20037;-83
2022/09/11 11:38:59;;;;;;;0.10;0.10;;;20.10;99.90;;;;;;5084060;28;20037;-83
2022/09/11 11:41:37;;;;;;;1.33;0.30;;;20.10;99.90;;;;;;5067026;28;20408;-83
2022/09/11 11:44:09;;;;;;;0.10;0.10;;;20.10;99.90;;;;;;5050443;28;20068;-83
2022/09/11 11:46:45;;;;;;;0.60;0.40;;;20.30;99.90;;;;;;5050946;28;20037;-83
2022/09/11 11:49:19;;;;;;;0.25;0.20;;;20.50;99.90;;;;;;5050792;28;20379;-83
2022/09/11 11:51:59;;;;;;;0.28;0.20;;;20.90;99.90;;;;;;5083335;28;20045;-83
2022/09/11 11:54:36;;;;;;;0.20;0.20;;;21.10;99.90;;;;;;5050456;28;20041;-83
2022/09/11 11:57:13;;;;;;;0.20;0.20;;;21.40;99.90;;;;;;5050030;28;20045;-83
2022/09/11 12:00:03;;;;;;;0.47;0.40;;;21.30;99.90;;;;;;5083199;28;20449;-83
2022/09/11 12:02:37;;;;;;;0.50;0.30;;;21.20;99.90;;;;;;5050255;28;20048;-83
2022/09/11 12:05:09;;;;;;;0.17;0.17;;;21.00;99.90;;;;;;5050320;28;20490;-83
2022/09/11 12:07:38;;;;;;;0.30;0.25;;;20.90;99.90;;;;;;5050273;28;20037;-83
2022/09/11 12:10:16;;;;;;;0.30;0.22;;;20.80;99.90;;;;;;5050070;28;20049;-83
2022/09/11 12:12:51;;;;;;;0.22;0.20;;;20.50;99.90;;;;;;5066443;28;20049;-83
2022/09/11 12:15:22;;;;;;;;;;;20.40;99.90;;;;;;5050595;28;20041;-83
2022/09/11 12:18:10;;;;;;;0.38;0.20;;;20.30;99.90;;;;;;5082930;28;19917;-83
2022/09/11 12:20:39;;;;;;;0.20;0.20;;;20.20;99.90;;;;;;5049976;28;20465;-83
2022/09/11 12:23:29;;;;;;;0.20;0.20;;;20.00;99.90;;;;;;5049539;28;20073;-83
2022/09/11 12:26:25;;;;;;;0.35;0.15;;;19.90;99.90;;;;;;5065786;28;20049;-83
2022/09/11 12:29:11;;;;;;;0.20;0.20;;;19.80;99.90;;;;;;5047681;28;20132;-83
2022/09/11 12:31:49;;;;;;;0.10;0.10;;;19.70;99.90;;;;;;5066186;28;20053;-83
2022/09/11 12:34:42;;;;;;;0.60;0.40;;;19.70;99.90;;;;;;5049693;28;20045;-83
2022/09/11 12:37:25;;;;;;;0.30;0.30;;;19.60;99.90;;;;;;5065214;28;20128;-83
2022/09/11 12:40:05;;;;;;;0.30;0.28;;;19.50;99.90;;;;;;5049711;28;20045;-83
2022/09/11 12:42:31;;;;;;;0.10;0.10;;;19.50;99.90;;;;;;5049358;28;20038;-83
2022/09/11 12:44:58;;;;;;;0.13;0.13;;;19.40;99.90;;;;;;5049265;28;20048;-83
2022/09/11 12:47:34;;;;;;;0.85;0.47;;;19.40;99.90;;;;;;5049456;28;20405;-83
2022/09/11 12:50:03;;;;;;;0.30;0.30;;;19.50;99.90;;;;;;5049180;28;20090;-83
2022/09/11 12:52:38;;;;;;;0.38;0.30;;;19.50;99.90;;;;;;5049613;28;20501;-83
2022/09/11 12:55:19;;;;;;;;;;;19.50;99.90;;;;;;5049460;28;20045;-83
2022/09/11 12:57:45;;;;;;;0.30;0.30;;;19.50;99.90;;;;;;5065836;28;20324;-83
2022/09/11 13:00:33;;;;;;;0.10;0.10;;;19.50;99.90;;;;;;5032703;28;20183;-83
2022/09/11 13:03:01;;;;;;;0.32;0.25;;;19.50;99.90;;;;;;5048851;28;20049;-83
2022/09/11 13:05:35;;;;;;;0.30;0.30;;;19.50;99.90;;;;;;5082149;28;20037;-83
2022/09/11 13:08:06;;;;;;;0.63;0.35;;;19.60;99.90;;;;;;5081864;28;20085;-83
2022/09/11 13:10:36;;;;;;;0.25;0.20;;;19.70;99.90;;;;;;5082531;28;20100;-83
2022/09/11 13:13:06;;;;;;;0.70;0.40;;;19.80;99.90;;;;;;5048802;28;20124;-83
2022/09/11 13:15:55;;;;;;;0.20;0.20;;;19.90;99.90;;;;;;5049061;28;20047;-83
2022/09/11 13:18:31;;;;;;;0.47;0.38;;;20.00;99.90;;;;;;5049046;28;20527;-83